aviador You're here:

GCTS Decoded Metar

TENERIFE in SPAIN
Report Time2018-07-16 10:00:00
UTC Time2018-07-16 10:23:20
Flight Rules vfr VFR
Wind070° at 21 Gusting to 31 kt
W.Decomp.*RWY 08: 20.9 kt HW 1.5 kt LCW
W.Rank070° ranks 1
Current wind is above 070° avg. (14.6)
Visibility9999 m
Phenomena:N/A
Clouds:Few 025 Hf
Expected CloudBase > 4,000 ft AGL from Temp-Dew spread
CeilingNone
Temp25°C (ISA +10)
Dew Point15°C (54% RH)
AAT19.1°C
QNH1020 hPa
Density Alt1,440 ft
Elevation236 ft
Report Wrong Elevation
Raw Report
GCTS 161000Z 07021G31KT 040V100 9999 FEW025 25/15 Q1020 NOSIG=

Extra information for GCTS:More info

Metar Taf Metar & Taf Last 4 Metars F.Rules Stats Wind Profile Meteogram Temp Stats Airport Information Weather charts Add Link Nearby VenuesMetar ALERT Operation Metar Decoded Social comments